Главная страница
METAR-TAF:

METAR-TAF

Аэропорты :

Мехрабад

Тегеран, Иран

широта: 35-41N, долгота: 051-21E, высота над уровнем моря: 1204 м

Текущие метеонаблюдения

Эта сводка был подготовлена 23 минут назад, в 05:30 UTC
Ветер 6 Узел от юго-западный
Температура 33°C
Влажность 16%
Давление 1015 hPa
Видимость 10 км и более
Нет облачности ниже 1500 м, и нет кучево-дождевой облачности

METAR: OIII 250530Z 22006KT CAVOK 33/04 Q1014 A2996

Время: 10:23 (05:53 UTC)

Прогноз

Эта сводка был подготовлена 6 часа и 53 минут назад, в 23:00 UTC
Прогноз действительный с 25-го 00 UTC до 26-го 06 UTC
Ветер 8 Узел от западный
Видимость: 8000 м

TAF: OIII 242300Z 2500/2606 28004MPS 8000 NSC

Метеонаблюдения и прогнозы для более 4000 аэропортов (сводки METAR и TAF).

Имеющиеся станции представлены на карте желтыми и красными точками.

Чтобы увидеть название станции, наведите на нее мышь.

Затем щелкните, чтобы увидеть метеонаблюдения и метеопрогнозы.

Управление картой: чтобы увеличить масштаб, щелкните зеленые кнопки с черным крестиком; чтобы уменьшить масштаб, щелкните зеленую кнопку с тире; для просмотра соседних карт щелкайте зеленые стрелки.


METAR-TAF: